Time;durP1;ratioP1;P1;durP2;ratioP2;P2;SDS_P1;SDS_P2;PMS_P1;PMS_P2;Temp;Humidity;BMP_temperature;BMP_pressure;BME280_temperature;BME280_humidity;BME280_pressure;Samples;Min_cycle;Max_cycle;Signal;HPM_P1;HPM_P2
2022/01/14 00:02:13;;;;;;;22.80;12.40;;;;;;;5.07;100.00;103542.75;5053155;28;20051;-82
2022/01/14 00:04:42;;;;;;;26.13;11.80;;;;;;;5.07;100.00;103541.03;5082649;28;20051;-83
2022/01/14 00:07:10;;;;;;;22.98;10.80;;;;;;;5.08;100.00;103540.25;5094926;28;20482;-82
2022/01/14 00:09:39;;;;;;;20.38;11.15;;;;;;;5.10;100.00;103544.66;5067138;28;20031;-83
2022/01/14 00:12:16;;;;;;;29.02;11.35;;;;;;;5.11;100.00;103543.84;5061816;28;20048;-82
2022/01/14 00:14:57;;;;;;;27.90;10.27;;;;;;;5.12;100.00;103537.81;5027906;28;20595;-83
2022/01/14 00:17:26;;;;;;;26.38;10.90;;;;;;;5.11;100.00;103539.53;5043705;28;20040;-83
2022/01/14 00:19:54;;;;;;;23.13;9.25;;;;;;;5.13;100.00;103532.69;5046749;28;20044;-82
2022/01/14 00:22:25;;;;;;;26.10;10.85;;;;;;;5.14;100.00;103541.44;5077618;28;20032;-82
2022/01/14 00:33:09;;;;;;;26.50;11.07;;;;;;;5.17;100.00;103529.47;5081006;28;20037;-83
2022/01/14 00:35:42;;;;;;;33.00;11.38;;;;;;;5.19;100.00;103513.91;5067405;28;20028;-83
2022/01/14 00:38:12;;;;;;;23.58;11.20;;;;;;;5.17;100.00;103519.03;5077932;28;20035;-83
2022/01/14 00:40:41;;;;;;;28.70;12.10;;;;;;;5.18;100.00;103525.16;5032226;28;20063;-83
2022/01/14 00:43:10;;;;;;;35.30;12.15;;;;;;;5.18;100.00;103525.16;5060405;28;20044;-83
2022/01/14 00:45:39;;;;;;;28.85;12.30;;;;;;;5.17;100.00;103521.63;5051900;28;20055;-83
2022/01/14 00:48:08;;;;;;;34.85;12.57;;;;;;;5.20;100.00;103518.34;5097585;28;20040;-82
2022/01/14 00:50:40;;;;;;;26.15;13.55;;;;;;;5.19;100.00;103511.28;5046354;28;20037;-83
2022/01/14 00:53:09;;;;;;;28.52;13.65;;;;;;;5.17;100.00;103508.56;5053216;28;20048;-82
2022/01/14 00:55:48;;;;;;;31.15;13.43;;;;;;;5.17;100.00;103516.41;5069459;28;20044;-84
2022/01/14 01:01:04;;;;;;;26.45;13.65;;;;;;;5.18;100.00;103515.63;5041931;28;20689;-82
2022/01/14 01:03:34;;;;;;;34.35;13.30;;;;;;;5.18;100.00;103510.41;5016720;28;20059;-83
2022/01/14 01:06:03;;;;;;;33.30;13.60;;;;;;;5.18;100.00;103514.69;5069840;28;20297;-82
2022/01/14 01:08:33;;;;;;;36.42;15.45;;;;;;;5.17;100.00;103526.88;5049831;28;20048;-83
2022/01/14 01:11:04;;;;;;;30.63;14.45;;;;;;;5.19;100.00;103529.59;5076367;28;20291;-82
2022/01/14 01:13:36;;;;;;;29.48;14.20;;;;;;;5.19;100.00;103516.53;5050466;28;20052;-83
2022/01/14 01:16:05;;;;;;;29.50;14.25;;;;;;;5.20;100.00;103515.75;5049145;28;20094;-82
2022/01/14 01:18:33;;;;;;;24.20;14.27;;;;;;;5.20;100.00;103513.13;5084097;28;20044;-83
2022/01/14 01:21:02;;;;;;;30.25;13.85;;;;;;;5.20;100.00;103507.91;5038021;28;20292;-83
2022/01/14 01:23:31;;;;;;;27.42;13.15;;;;;;;5.19;100.00;103512.19;5067047;28;20055;-83
2022/01/14 01:26:18;;;;;;;34.10;13.73;;;;;;;5.19;100.00;103511.28;5052701;28;20397;-83
2022/01/14 01:31:43;;;;;;;33.50;14.43;;;;;;;5.17;100.00;103498.13;5005338;28;20058;-82
2022/01/14 01:34:17;;;;;;;28.87;14.90;;;;;;;5.17;100.00;103505.06;5050163;28;20051;-83
2022/01/14 01:36:48;;;;;;;31.33;14.57;;;;;;;5.16;100.00;103501.53;5051024;28;20033;-81
2022/01/14 01:39:18;;;;;;;;;;;;;;;5.12;100.00;103499.50;5087065;28;20031;-82
2022/01/14 01:41:49;;;;;;;22.25;12.57;;;;;;;5.12;100.00;103494.28;5073367;28;20036;-81
2022/01/14 01:44:19;;;;;;;28.67;13.73;;;;;;;5.14;100.00;103502.22;5085733;28;20048;-82
2022/01/14 01:46:50;;;;;;;32.00;13.07;;;;;;;5.13;100.00;103500.44;5067123;28;20283;-81
2022/01/14 01:49:24;;;;;;;28.40;12.55;;;;;;;5.13;100.00;103498.72;5058697;28;20040;-82
2022/01/14 01:51:54;;;;;;;37.28;13.63;;;;;;;5.13;100.00;103498.72;5064473;28;21077;-80
2022/01/14 01:54:24;;;;;;;30.45;14.10;;;;;;;5.14;100.00;103495.31;5050425;28;20040;-80
2022/01/14 01:56:53;;;;;;;37.08;12.82;;;;;;;5.16;100.00;103498.00;5066136;28;20689;-82
2022/01/14 01:59:23;;;;;;;29.02;14.95;;;;;;;5.16;100.00;103484.94;5088816;28;20544;-80
2022/01/14 02:01:55;;;;;;;29.65;13.60;;;;;;;5.14;100.00;103492.69;5084737;28;20051;-82
2022/01/14 02:04:25;;;;;;;33.22;15.18;;;;;;;5.15;100.00;103484.03;5031304;22;20046;-81
2022/01/14 02:06:57;;;;;;;31.50;14.13;;;;;;;5.14;100.00;103482.25;4943577;28;20266;-81
2022/01/14 02:09:25;;;;;;;33.85;13.95;;;;;;;5.12;100.00;103473.34;5030610;28;20045;-81
2022/01/14 02:11:54;;;;;;;35.03;14.95;;;;;;;5.10;100.00;103469.75;5009318;28;20265;-81
2022/01/14 02:22:10;;;;;;;39.92;14.55;;;;;;;5.04;100.00;103465.00;4983482;28;20038;-82
2022/01/14 02:22:50;;;;;;;39.60;13.85;;;;;;;5.03;100.00;103468.44;4995033;28;20038;-81
2022/01/14 02:25:28;;;;;;;31.02;14.77;;;;;;;5.01;100.00;103472.66;5012874;28;20526;-81
2022/01/14 02:28:07;;;;;;;36.25;15.75;;;;;;;4.99;100.00;103481.16;4984073;28;20046;-82
2022/01/14 02:30:39;;;;;;;33.22;14.73;;;;;;;4.97;100.00;103483.72;4997849;28;20038;-82
2022/01/14 02:33:09;;;;;;;33.72;15.50;;;;;;;4.95;100.00;103479.16;4995598;28;20038;-81
2022/01/14 02:35:39;;;;;;;27.85;13.93;;;;;;;4.94;100.00;103479.97;4964026;28;20057;-81
2022/01/14 02:38:10;;;;;;;32.20;15.18;;;;;;;4.92;100.00;103474.63;4970957;28;20065;-81
2022/01/14 02:40:40;;;;;;;32.22;15.30;;;;;;;4.93;100.00;103470.31;4995655;28;20132;-81
2022/01/14 02:43:14;;;;;;;22.70;12.23;;;;;;;4.92;100.00;103490.31;5003292;28;20223;-81
2022/01/14 02:45:51;;;;;;;33.30;14.25;;;;;;;4.92;100.00;103485.09;5014001;28;20054;-82
2022/01/14 02:48:23;;;;;;;28.67;15.57;;;;;;;4.93;100.00;103481.66;5008151;28;20411;-81
2022/01/14 02:50:59;;;;;;;32.58;14.20;;;;;;;4.93;100.00;103491.22;4974778;28;20042;-83
2022/01/14 02:56:01;;;;;;;35.78;16.02;;;;;;;4.95;100.00;103460.88;5005654;28;20046;-82
2022/01/14 02:58:33;;;;;;;36.42;15.52;;;;;;;4.94;100.00;103467.81;4993377;28;20038;-81
2022/01/14 03:01:10;;;;;;;25.48;14.32;;;;;;;4.95;100.00;103463.47;5007751;28;20041;-81
2022/01/14 03:03:43;;;;;;;37.83;15.73;;;;;;;4.98;100.00;103463.69;5000695;28;20050;-81
2022/01/14 03:06:14;;;;;;;33.67;15.65;;;;;;;4.99;100.00;103458.59;4964664;28;20049;-80
2022/01/14 03:08:45;;;;;;;30.98;16.45;;;;;;;5.01;100.00;103459.59;4984013;28;20042;-81
2022/01/14 03:11:27;;;;;;;27.10;16.05;;;;;;;5.02;100.00;103457.88;4976866;28;20042;-81
2022/01/14 03:13:57;;;;;;;29.58;16.50;;;;;;;5.02;100.00;103460.50;4986808;28;20043;-82
2022/01/14 03:16:26;;;;;;;32.90;17.00;;;;;;;5.04;100.00;103469.34;4950972;28;20074;-82
2022/01/14 03:19:05;;;;;;;35.10;17.45;;;;;;;5.06;100.00;103457.28;4956875;28;20042;-81
2022/01/14 03:21:39;;;;;;;36.90;16.27;;;;;;;5.07;100.00;103460.00;4970572;28;20039;-80
2022/01/14 03:24:20;;;;;;;30.08;15.77;;;;;;;5.08;100.00;103447.81;4957965;28;20590;-81
2022/01/14 03:26:52;;;;;;;31.33;14.73;;;;;;;5.11;100.00;103460.22;4983143;28;20055;-81
2022/01/14 03:29:20;;;;;;;30.25;17.23;;;;;;;5.12;100.00;103451.56;4974798;28;22267;-81
2022/01/14 03:31:49;;;;;;;33.15;14.65;;;;;;;5.13;100.00;103454.28;4969753;28;20062;-81
2022/01/14 03:34:18;;;;;;;34.67;16.15;;;;;;;5.16;100.00;103453.56;4952344;28;20054;-80
2022/01/14 03:36:46;;;;;;;30.88;15.13;;;;;;;5.17;100.00;103451.06;4957900;28;20050;-82
2022/01/14 03:39:18;;;;;;;26.20;13.93;;;;;;;5.18;100.00;103441.50;4950096;28;20144;-81
2022/01/14 03:41:47;;;;;;;26.38;14.23;;;;;;;5.18;100.00;103439.81;4962854;28;20305;-80
2022/01/14 03:44:16;;;;;;;28.25;15.73;;;;;;;5.20;100.00;103453.00;4979266;28;20057;-82
2022/01/14 03:46:44;;;;;;;29.70;14.40;;;;;;;5.20;100.00;103455.59;4988157;28;20054;-81
2022/01/14 03:49:13;;;;;;;28.00;14.75;;;;;;;5.20;100.00;103445.16;4978472;28;20431;-81
2022/01/14 03:51:42;;;;;;;27.98;14.65;;;;;;;5.21;100.00;103433.88;4990243;28;20046;-81
2022/01/14 03:54:11;;;;;;;29.40;15.35;;;;;;;5.23;100.00;103437.50;4951586;28;20156;-81
2022/01/14 03:56:39;;;;;;;36.55;15.30;;;;;;;5.25;100.00;103439.44;4978910;28;20042;-81
2022/01/14 03:59:08;;;;;;;27.45;15.63;;;;;;;5.25;100.00;103428.03;4969765;28;20042;-82
2022/01/14 04:01:36;;;;;;;35.45;15.98;;;;;;;5.26;100.00;103419.41;4952297;28;20062;-82
2022/01/14 04:04:05;;;;;;;27.77;14.85;;;;;;;5.25;100.00;103405.44;4971523;28;20403;-81
2022/01/14 04:06:33;;;;;;;31.65;15.52;;;;;;;5.26;100.00;103398.50;4975938;28;20046;-81
2022/01/14 04:09:02;;;;;;;32.35;16.52;;;;;;;5.22;100.00;103389.53;4949443;28;20030;-81
2022/01/14 04:11:33;;;;;;;33.17;14.60;;;;;;;5.21;100.00;103382.50;4988029;28;20057;-82
2022/01/14 04:15:36;;;;;;;;;;;;;;;5.19;100.00;103375.34;4957481;28;20026;-81
2022/01/14 04:16:50;;;;;;;33.22;17.55;;;;;;;5.14;100.00;103393.38;4984538;28;19921;-81
2022/01/14 04:19:19;;;;;;;32.60;15.15;;;;;;;5.11;100.00;103381.81;4966984;28;20565;-80
2022/01/14 04:21:48;;;;;;;32.05;15.63;;;;;;;5.06;100.00;103384.09;4990094;28;20053;-81
2022/01/14 04:24:20;;;;;;;36.00;17.92;;;;;;;5.04;100.00;103381.38;4967259;28;20259;-82
2022/01/14 04:26:49;;;;;;;32.47;16.95;;;;;;;5.02;100.00;103384.69;4964318;28;20360;-83
2022/01/14 04:29:17;;;;;;;37.00;17.38;;;;;;;4.98;100.00;103396.66;4963774;28;20085;-81
2022/01/14 04:31:46;;;;;;;31.90;17.67;;;;;;;4.97;100.00;103379.19;4939812;28;20411;-81
2022/01/14 04:34:17;;;;;;;39.58;18.10;;;;;;;4.96;100.00;103384.28;4984764;28;20252;-82
2022/01/14 04:36:45;;;;;;;28.27;18.10;;;;;;;4.95;100.00;103374.63;4974772;28;20399;-80
2022/01/14 04:39:14;;;;;;;37.67;19.20;;;;;;;4.93;100.00;103374.53;4925284;28;20163;-80
2022/01/14 04:41:43;;;;;;;37.38;18.45;;;;;;;4.92;100.00;103358.78;4986090;28;20050;-81
2022/01/14 04:44:15;;;;;;;36.15;19.45;;;;;;;4.91;100.00;103355.22;4971988;28;20262;-82
2022/01/14 04:49:12;;;;;;;35.40;20.02;;;;;;;4.90;100.00;103356.06;4961355;28;20045;-81
2022/01/14 04:51:40;;;;;;;36.35;19.73;;;;;;;4.90;100.00;103356.06;4943612;28;20049;-81
2022/01/14 04:54:09;;;;;;;35.30;20.75;;;;;;;4.87;100.00;103348.91;4986949;28;20141;-81
2022/01/14 04:56:38;;;;;;;43.10;20.65;;;;;;;4.87;100.00;103338.44;4953116;28;20053;-80
2022/01/14 04:59:06;;;;;;;36.33;20.00;;;;;;;4.86;100.00;103346.19;4942872;28;20049;-81
2022/01/14 05:01:35;;;;;;;42.17;20.05;;;;;;;4.87;100.00;103361.06;4971881;28;20060;-80
2022/01/14 05:04:04;;;;;;;42.67;21.25;;;;;;;4.86;100.00;103365.38;4943831;28;20404;-81
2022/01/14 05:06:32;;;;;;;36.28;19.88;;;;;;;4.88;100.00;103366.41;4979815;28;20138;-81
2022/01/14 05:09:05;;;;;;;35.10;18.33;;;;;;;4.90;100.00;103358.66;4964688;28;20046;-82
2022/01/14 05:11:40;;;;;;;38.13;20.27;;;;;;;4.91;100.00;103354.34;4951231;28;20047;-81
2022/01/14 05:14:09;;;;;;;33.45;19.50;;;;;;;4.92;100.00;103364.00;4945712;28;20168;-81
2022/01/14 05:16:37;;;;;;;31.02;18.50;;;;;;;4.94;100.00;103368.50;4956119;28;20050;-81
2022/01/14 05:19:06;;;;;;;30.95;19.10;;;;;;;4.95;100.00;103358.97;4939625;28;20046;-81
2022/01/14 05:21:34;;;;;;;31.92;19.05;;;;;;;4.97;100.00;103360.88;4986804;28;20049;-81
2022/01/14 05:24:03;;;;;;;34.20;19.52;;;;;;;4.98;100.00;103369.63;4968816;28;20046;-82
2022/01/14 05:26:32;;;;;;;41.40;20.30;;;;;;;5.01;100.00;103372.41;4951854;28;20038;-81
2022/01/14 05:29:01;;;;;;;32.47;19.55;;;;;;;5.01;100.00;103375.97;4991183;28;20526;-83
2022/01/14 05:31:47;;;;;;;36.63;20.15;;;;;;;5.02;100.00;103379.47;4971283;28;20060;-81
2022/01/14 05:34:15;;;;;;;33.63;19.17;;;;;;;5.03;100.00;103382.19;4976853;28;20492;-81
2022/01/14 05:36:44;;;;;;;33.75;18.73;;;;;;;5.04;100.00;103378.75;4972515;28;20043;-82
2022/01/14 05:39:12;;;;;;;29.67;17.27;;;;;;;5.07;100.00;103384.19;4965752;28;20046;-82
2022/01/14 05:41:41;;;;;;;36.20;18.85;;;;;;;5.08;100.00;103385.09;4969522;28;20057;-83
2022/01/14 05:44:09;;;;;;;37.15;18.23;;;;;;;5.10;100.00;103387.81;4953932;28;20436;-80
2022/01/14 05:46:38;;;;;;;26.50;17.13;;;;;;;5.11;100.00;103392.25;4954854;28;20047;-82
2022/01/14 05:49:07;;;;;;;31.90;18.90;;;;;;;5.13;100.00;103395.88;4975665;28;20046;-82
2022/01/14 05:51:39;;;;;;;31.40;17.42;;;;;;;5.15;100.00;103394.25;4970004;28;20395;-81
2022/01/14 05:54:07;;;;;;;31.65;16.17;;;;;;;5.14;100.00;103398.59;4985457;28;20050;-81
2022/01/14 05:56:36;;;;;;;38.95;17.50;;;;;;;5.15;100.00;103392.53;4973511;28;20066;-82
2022/01/14 05:59:07;;;;;;;28.27;14.75;;;;;;;5.16;100.00;103397.00;4949679;28;20038;-82
2022/01/14 06:01:36;;;;;;;32.05;15.50;;;;;;;5.17;100.00;103397.88;4990984;28;20066;-81
2022/01/14 06:04:05;;;;;;;29.70;15.45;;;;;;;5.16;100.00;103388.22;4996468;28;20031;-81
2022/01/14 06:06:34;;;;;;;35.75;16.85;;;;;;;5.17;100.00;103390.94;4985304;28;20164;-83
2022/01/14 06:09:04;;;;;;;29.20;15.95;;;;;;;5.19;100.00;103388.44;4988174;28;20038;-81
2022/01/14 06:11:32;;;;;;;32.67;16.73;;;;;;;5.19;100.00;103385.81;4983114;28;20050;-81
2022/01/14 06:14:01;;;;;;;24.85;15.98;;;;;;;5.19;100.00;103380.59;4976865;28;20070;-81
2022/01/14 06:16:30;;;;;;;27.92;15.18;;;;;;;5.18;100.00;103371.84;4975415;28;20042;-82
2022/01/14 06:18:58;;;;;;;28.92;15.40;;;;;;;5.19;100.00;103381.47;4967834;28;20050;-80
2022/01/14 06:21:27;;;;;;;28.35;14.07;;;;;;;5.20;100.00;103377.19;4961855;28;20514;-82
2022/01/14 06:23:55;;;;;;;36.65;15.98;;;;;;;5.21;100.00;103384.22;4971986;28;20491;-82
2022/01/14 06:26:24;;;;;;;33.25;14.00;;;;;;;5.21;100.00;103379.88;4954773;28;20503;-82
2022/01/14 06:28:53;;;;;;;35.17;14.20;;;;;;;5.21;100.00;103382.50;4962605;28;20272;-82
2022/01/14 06:31:21;;;;;;;32.05;15.35;;;;;;;5.21;100.00;103369.41;4977920;28;20492;-81
2022/01/14 06:33:49;;;;;;;28.40;14.35;;;;;;;5.24;100.00;103379.19;4985404;28;20058;-81
2022/01/14 06:36:18;;;;;;;27.27;14.13;;;;;;;5.25;100.00;103388.81;4952254;28;23726;-81
2022/01/14 06:38:47;;;;;;;30.58;15.45;;;;;;;5.25;100.00;103379.28;4984726;28;20049;-81
2022/01/14 06:41:16;;;;;;;34.40;15.13;;;;;;;5.26;100.00;103383.69;4996659;28;20034;-84
2022/01/14 06:43:44;;;;;;;38.55;14.57;;;;;;;5.26;100.00;103377.56;4970313;28;20053;-81
2022/01/14 06:46:13;;;;;;;25.73;14.30;;;;;;;5.26;100.00;103388.03;4934335;28;20041;-81
2022/01/14 06:48:41;;;;;;;27.58;15.27;;;;;;;5.26;100.00;103374.97;4974855;28;20061;-81
2022/01/14 06:51:14;;;;;;;31.48;14.00;;;;;;;5.26;100.00;103377.56;4986914;28;20038;-80
2022/01/14 06:53:46;;;;;;;31.50;13.52;;;;;;;5.26;100.00;103385.41;4987951;28;20184;-81
2022/01/14 06:56:15;;;;;;;22.27;12.32;;;;;;;5.26;100.00;103385.41;4979443;28;20050;-81
2022/01/14 06:58:44;;;;;;;31.23;14.27;;;;;;;5.26;100.00;103388.03;4981920;28;20073;-82
2022/01/14 07:01:13;;;;;;;25.98;11.73;;;;;;;5.27;100.00;103387.22;4943144;28;20046;-82
2022/01/14 07:03:42;;;;;;;21.20;11.32;;;;;;;5.26;100.00;103375.84;4976796;28;20054;-81
2022/01/14 07:06:10;;;;;;;23.50;11.48;;;;;;;5.26;100.00;103382.81;4986479;28;20050;-81
2022/01/14 07:08:39;;;;;;;28.45;11.45;;;;;;;5.27;100.00;103382.91;4964113;28;20054;-81
2022/01/14 07:11:08;;;;;;;26.20;11.20;;;;;;;5.27;100.00;103371.53;4930097;28;20051;-82
2022/01/14 07:13:39;;;;;;;23.77;10.05;;;;;;;5.28;100.00;103375.97;4965624;28;20042;-82
2022/01/14 07:16:08;;;;;;;24.35;10.50;;;;;;;5.28;100.00;103386.44;4948103;28;20057;-82
2022/01/14 07:18:37;;;;;;;27.05;10.52;;;;;;;5.27;100.00;103389.81;4950991;28;20267;-81
2022/01/14 07:21:05;;;;;;;30.00;8.95;;;;;;;5.28;100.00;103389.03;4963369;28;20057;-81
2022/01/14 07:23:34;;;;;;;20.58;9.10;;;;;;;5.27;100.00;103385.53;4955422;28;20069;-84
2022/01/14 07:26:02;;;;;;;19.65;8.90;;;;;;;5.27;100.00;103388.16;4965156;28;20067;-82
2022/01/14 07:28:31;;;;;;;26.23;9.50;;;;;;;5.29;100.00;103393.44;4972665;28;20053;-83
2022/01/14 07:30:59;;;;;;;21.95;10.15;;;;;;;5.31;100.00;103414.47;4937953;28;20492;-82
2022/01/14 07:33:28;;;;;;;26.20;10.60;;;;;;;5.30;100.00;103404.84;4943160;28;20494;-82
2022/01/14 07:36:02;;;;;;;22.83;10.55;;;;;;;5.31;100.00;103404.00;4980358;28;20055;-82
2022/01/14 07:38:34;;;;;;;29.25;10.13;;;;;;;5.32;100.00;103421.53;4963189;28;20510;-82
2022/01/14 07:41:03;;;;;;;21.25;10.13;;;;;;;5.32;100.00;103417.19;4973346;28;20035;-82
2022/01/14 07:43:31;;;;;;;27.13;11.15;;;;;;;5.32;100.00;103411.97;4970619;28;20051;-82
2022/01/14 07:46:10;;;;;;;29.58;11.52;;;;;;;5.30;100.00;103408.34;4976919;28;20035;-83
2022/01/14 07:48:42;;;;;;;35.45;10.50;;;;;;;5.30;100.00;103415.28;4956114;28;20042;-82
2022/01/14 07:51:11;;;;;;;27.80;9.63;;;;;;;5.30;100.00;103412.69;5000737;28;20694;-82
2022/01/14 07:53:40;;;;;;;25.38;10.00;;;;;;;5.30;100.00;103412.69;4936706;28;20038;-82
2022/01/14 07:56:11;;;;;;;26.48;9.70;;;;;;;5.29;100.00;103403.91;4986183;28;20435;-86
2022/01/14 07:58:42;;;;;;;25.20;8.88;;;;;;;5.31;100.00;103406.63;4963307;28;20499;-82
2022/01/14 08:01:13;;;;;;;21.50;6.68;;;;;;;5.32;100.00;103413.69;4983714;28;20520;-82
2022/01/14 08:03:42;;;;;;;27.30;7.45;;;;;;;5.33;100.00;103403.31;4964777;28;20523;-83
2022/01/14 08:06:11;;;;;;;17.95;6.25;;;;;;;5.34;100.00;103405.13;4960684;28;20346;-84
2022/01/14 08:08:39;;;;;;;19.70;5.18;;;;;;;5.35;100.00;103400.78;4941411;28;20396;-83
2022/01/14 08:11:08;;;;;;;18.10;4.50;;;;;;;5.37;100.00;103402.72;4963923;28;20620;-83
2022/01/14 08:13:39;;;;;;;22.10;5.00;;;;;;;5.39;100.00;103392.38;4978040;28;20356;-84
2022/01/14 08:16:08;;;;;;;19.15;4.68;;;;;;;5.39;100.00;103398.50;4962946;28;20042;-83
2022/01/14 08:18:36;;;;;;;23.17;5.90;;;;;;;5.40;100.00;103392.44;4979043;28;20042;-83
2022/01/14 08:21:05;;;;;;;21.70;5.03;;;;;;;5.41;100.00;103398.59;4954952;28;20429;-82
2022/01/14 08:23:33;;;;;;;19.63;5.93;;;;;;;5.43;100.00;103392.66;4976950;28;20049;-83
2022/01/14 08:26:02;;;;;;;20.08;5.10;;;;;;;5.43;100.00;103387.41;4981824;28;20061;-83
2022/01/14 08:28:31;;;;;;;30.42;5.78;;;;;;;5.46;100.00;103395.47;4933742;28;20046;-82
2022/01/14 08:30:59;;;;;;;20.52;5.50;;;;;;;5.50;100.00;103398.28;4970837;28;20050;-82
2022/01/14 08:33:28;;;;;;;24.65;6.20;;;;;;;5.52;100.00;103404.50;4932464;28;21006;-82
2022/01/14 08:35:56;;;;;;;25.38;7.80;;;;;;;5.53;100.00;103404.59;4962261;28;20059;-83
2022/01/14 08:38:25;;;;;;;21.73;6.45;;;;;;;5.57;100.00;103408.31;4944221;28;20064;-83
2022/01/14 08:40:55;;;;;;;20.45;7.47;;;;;;;5.56;100.00;103409.16;4964964;28;20050;-83
2022/01/14 08:43:24;;;;;;;24.50;7.38;;;;;;;5.56;100.00;103410.06;4953390;28;20045;-83
2022/01/14 08:45:53;;;;;;;31.77;7.63;;;;;;;5.57;100.00;103417.06;4961738;28;20073;-83
2022/01/14 08:48:24;;;;;;;24.48;7.80;;;;;;;5.57;100.00;103422.31;4964229;28;20514;-84
2022/01/14 08:50:53;;;;;;;21.80;7.13;;;;;;;5.58;100.00;103429.34;4969876;28;20058;-84
2022/01/14 08:53:26;;;;;;;24.55;8.00;;;;;;;5.60;100.00;103432.09;4981177;28;20152;-84
2022/01/14 08:55:55;;;;;;;19.80;7.53;;;;;;;5.60;100.00;103443.44;4965981;28;20038;-83
2022/01/14 08:58:24;;;;;;;19.70;6.60;;;;;;;5.62;100.00;103422.63;4974127;28;20061;-84
2022/01/14 09:00:53;;;;;;;21.02;6.95;;;;;;;5.64;100.00;103428.84;4976127;28;20030;-84
2022/01/14 09:03:24;;;;;;;20.50;6.43;;;;;;;5.64;100.00;103432.38;4972353;28;20241;-83
2022/01/14 09:05:53;;;;;;;17.90;6.18;;;;;;;5.65;100.00;103428.97;4954491;28;20396;-83
2022/01/14 09:08:21;;;;;;;22.75;7.43;;;;;;;5.68;100.00;103427.34;4960522;28;20065;-83
2022/01/14 09:10:50;;;;;;;24.55;6.93;;;;;;;5.68;100.00;103420.38;4966972;28;20038;-83
2022/01/14 09:13:18;;;;;;;18.55;6.82;;;;;;;5.69;100.00;103416.06;4952563;28;20041;-83
2022/01/14 09:15:49;;;;;;;26.60;6.85;;;;;;;5.70;100.00;103416.16;4998589;28;20050;-83
2022/01/14 09:18:18;;;;;;;26.02;6.22;;;;;;;5.71;100.00;103410.13;4998173;28;20160;-83
2022/01/14 09:20:47;;;;;;;25.25;6.35;;;;;;;5.73;100.00;103416.38;4966319;28;20041;-83
2022/01/14 09:23:22;;;;;;;26.05;6.70;;;;;;;5.76;100.00;103413.94;4934913;28;20050;-84
2022/01/14 09:25:55;;;;;;;14.60;5.90;;;;;;;5.79;100.00;103408.91;4998564;28;20042;-83
2022/01/14 09:28:23;;;;;;;17.48;6.53;;;;;;;5.82;100.00;103416.97;4984340;28;20259;-83
2022/01/14 09:30:52;;;;;;;19.42;6.70;;;;;;;5.86;100.00;103415.44;4972851;28;20035;-83
2022/01/14 09:33:21;;;;;;;18.30;5.00;;;;;;;5.88;100.00;103421.69;4969409;28;20046;-83
2022/01/14 09:35:49;;;;;;;17.98;4.72;;;;;;;5.92;100.00;103435.88;4983611;28;20054;-82
2022/01/14 09:38:18;;;;;;;23.92;4.97;;;;;;;5.94;100.00;103429.91;4955426;28;20290;-84
2022/01/14 09:40:49;;;;;;;22.45;5.53;;;;;;;5.97;100.00;103431.84;4978678;28;20061;-84
2022/01/14 09:43:18;;;;;;;24.08;4.70;;;;;;;6.00;100.00;103434.66;4999276;28;20042;-84
2022/01/14 09:46:05;;;;;;;18.30;4.38;;;;;;;6.03;100.00;103450.53;4968506;28;20057;-84
2022/01/14 09:48:36;;;;;;;19.25;4.10;;;;;;;6.06;100.00;103450.75;5002056;28;20046;-83
2022/01/14 09:51:05;;;;;;;17.02;4.38;;;;;;;6.08;100.00;103454.38;4989715;28;20388;-83
2022/01/14 09:53:34;;;;;;;18.42;4.25;;;;;;;6.10;100.00;103459.72;4950748;28;20367;-84
2022/01/14 09:56:04;;;;;;;16.58;3.88;;;;;;;6.12;100.00;103448.50;4974294;28;20047;-84
2022/01/14 09:58:36;;;;;;;15.10;3.83;;;;;;;6.13;100.00;103450.34;4986675;28;20054;-84
2022/01/14 10:01:09;;;;;;;27.02;4.55;;;;;;;6.14;100.00;103449.50;4929385;28;20046;-82
2022/01/14 10:04:01;;;;;;;19.13;4.20;;;;;;;6.17;100.00;103456.69;4996351;28;20059;-82
2022/01/14 10:06:49;;;;;;;23.80;4.15;;;;;;;6.17;100.00;103454.06;4991968;28;20058;-83
2022/01/14 10:09:24;;;;;;;19.80;4.65;;;;;;;6.20;100.00;103451.59;4953645;28;20705;-84
2022/01/14 10:12:05;;;;;;;24.27;3.97;;;;;;;6.20;100.00;103463.00;4985660;28;20419;-83
2022/01/14 10:14:37;;;;;;;19.55;4.10;;;;;;;6.21;100.00;103450.81;4974996;28;20038;-82
2022/01/14 10:17:09;;;;;;;20.65;4.50;;;;;;;6.24;100.00;103456.25;4985083;28;20518;-83
2022/01/14 10:19:44;;;;;;;16.05;3.97;;;;;;;6.27;100.00;103452.91;4973413;28;20078;-83
2022/01/14 10:22:28;;;;;;;20.33;4.28;;;;;;;6.29;100.00;103459.16;4975881;28;20683;-84
2022/01/14 10:25:00;;;;;;;21.27;3.88;;;;;;;6.31;100.00;103482.00;4969854;28;20054;-82
2022/01/14 10:27:41;;;;;;;18.13;4.07;;;;;;;6.34;100.00;103476.06;4980068;28;20681;-82
2022/01/14 10:30:33;;;;;;;24.13;4.32;;;;;;;6.37;100.00;103479.78;4964239;28;20187;-82
2022/01/14 10:33:05;;;;;;;16.55;3.50;;;;;;;6.38;100.00;103476.34;4964372;28;20035;-81
2022/01/14 10:35:46;;;;;;;19.48;5.13;;;;;;;6.41;100.00;103488.75;4995720;28;20538;-83
2022/01/14 10:38:22;;;;;;;28.05;5.70;;;;;;;6.41;100.00;103478.25;4973359;28;20042;-84
2022/01/14 10:40:55;;;;;;;24.10;6.90;;;;;;;6.44;100.00;103481.06;4966824;28;20057;-85
2022/01/14 10:43:32;;;;;;;30.75;7.40;;;;;;;6.47;100.00;103493.47;4975428;28;20237;-83
2022/01/14 10:46:05;;;;;;;30.10;8.52;;;;;;;6.48;100.00;103487.41;4987064;28;20460;-83
2022/01/14 10:48:39;;;;;;;24.48;5.68;;;;;;;6.50;100.00;103486.66;4985020;28;20054;-82
2022/01/14 10:51:14;;;;;;;18.27;3.85;;;;;;;6.50;100.00;103480.53;4978306;28;20162;-82
2022/01/14 10:53:49;;;;;;;25.23;3.60;;;;;;;6.52;100.00;103482.47;5005893;28;20038;-83
2022/01/14 10:56:20;;;;;;;13.10;3.45;;;;;;;6.52;100.00;103485.06;4955296;28;20046;-82
2022/01/14 10:58:50;;;;;;;;;;;;;;;6.54;100.00;103475.59;4980228;28;20046;-82
2022/01/14 11:01:22;;;;;;;16.08;3.30;;;;;;;6.54;100.00;103483.47;4963379;28;19921;-83
2022/01/14 11:03:52;;;;;;;26.00;4.40;;;;;;;6.55;100.00;103474.75;5005721;28;20055;-82
2022/01/14 11:06:29;;;;;;;22.30;4.43;;;;;;;6.56;100.00;103471.34;4983618;28;20077;-82
2022/01/14 11:09:07;;;;;;;21.05;4.40;;;;;;;6.59;100.00;103481.09;4997055;28;20118;-84
2022/01/14 11:11:37;;;;;;;18.90;4.38;;;;;;;6.59;100.00;103468.91;4982597;28;20038;-82
2022/01/14 11:14:08;;;;;;;23.80;3.95;;;;;;;6.61;100.00;103469.00;4955954;28;20046;-83
2022/01/14 11:16:38;;;;;;;20.13;4.10;;;;;;;6.62;100.00;103471.72;5002450;28;20054;-83
2022/01/14 11:19:09;;;;;;;23.73;3.58;;;;;;;6.64;100.00;103474.44;4962122;28;20038;-83
2022/01/14 11:24:37;;;;;;;26.90;4.50;;;;;;;6.64;100.00;103471.81;4988425;28;20362;-82
2022/01/14 11:27:13;;;;;;;27.10;4.60;;;;;;;6.64;100.00;103471.81;4946209;28;20500;-83
2022/01/14 11:29:51;;;;;;;23.27;4.47;;;;;;;6.63;100.00;103470.00;4974287;28;20042;-83
2022/01/14 11:32:20;;;;;;;21.50;4.72;;;;;;;6.64;100.00;103471.81;4993108;28;20251;-83
2022/01/14 11:34:50;;;;;;;26.80;5.22;;;;;;;6.66;100.00;103469.31;4975715;28;20055;-82
2022/01/14 11:37:33;;;;;;;27.70;4.35;;;;;;;6.68;100.00;103478.16;4952084;28;20069;-82
2022/01/14 11:40:07;;;;;;;21.90;3.88;;;;;;;6.68;100.00;103479.06;4993857;28;20064;-83
2022/01/14 11:42:59;;;;;;;21.95;4.30;;;;;;;6.70;100.00;103472.19;4968254;28;20050;-85
2022/01/14 11:45:43;;;;;;;22.02;5.07;;;;;;;6.72;100.00;103481.03;4973419;28;20232;-84
2022/01/14 11:48:32;;;;;;;22.25;4.35;;;;;;;6.70;100.00;103480.03;4983088;28;20069;-82
2022/01/14 11:51:02;;;;;;;25.92;4.53;;;;;;;6.70;100.00;103482.66;4969120;28;20050;-83
2022/01/14 11:53:38;;;;;;;30.48;4.57;;;;;;;6.72;100.00;103488.00;4959090;28;20069;-85
2022/01/14 11:56:29;;;;;;;30.63;5.38;;;;;;;6.72;100.00;103482.78;4993730;28;20053;-84
2022/01/14 11:59:17;;;;;;;42.75;5.78;;;;;;;6.73;100.00;103492.44;4967602;28;20049;-84